Amado, Arizona
Current Conditions -  °F | °C
As of 3:54 PM on Monday 22 Dec 2014 (Local Time) from KOLS Reporting Station
Clear Clear  
Wind Chill: 65°   Ceiling: Unl
Heat Index: 65°   Visibility: 10mi
Dew Point: 35°   Wind: 6mph
Humidity: 33%   Direction: 310°NW
Pressure: 29.93"   Gusts: NA
Location:  31.71°N, 111.07°W
Report Text: KOLS 222254Z AUTO 31005KT 10SM CLR 18/02 A2993 RMK AO2 SLP104 T01830017
Loading
Personal Weather Stations






























Interactive Weather Map New forecast layout! Learn more

10-Day Weather Forecast

Advertisements
Track Severe Weather on mobile